sensor_id;sensor_type;location;lat;lon;timestamp;P1;durP1;ratioP1;P2;durP2;ratioP2
2940;SDS011;1480;51.456;6.670;2022-12-07T00:00:02;29.23;;;20.77;;
2940;SDS011;1480;51.456;6.670;2022-12-07T00:02:31;24.10;;;18.77;;
2940;SDS011;1480;51.456;6.670;2022-12-07T00:04:58;24.80;;;18.67;;
2940;SDS011;1480;51.456;6.670;2022-12-07T00:07:25;22.23;;;19.33;;
2940;SDS011;1480;51.456;6.670;2022-12-07T00:09:52;23.27;;;18.27;;
2940;SDS011;1480;51.456;6.670;2022-12-07T00:12:19;22.87;;;18.53;;
2940;SDS011;1480;51.456;6.670;2022-12-07T00:14:46;27.83;;;18.47;;
2940;SDS011;1480;51.456;6.670;2022-12-07T00:17:13;24.40;;;19.10;;
2940;SDS011;1480;51.456;6.670;2022-12-07T00:19:41;23.27;;;17.70;;
2940;SDS011;1480;51.456;6.670;2022-12-07T00:22:08;23.63;;;19.30;;
2940;SDS011;1480;51.456;6.670;2022-12-07T00:24:35;23.33;;;19.20;;
2940;SDS011;1480;51.456;6.670;2022-12-07T00:27:02;26.00;;;19.13;;
2940;SDS011;1480;51.456;6.670;2022-12-07T00:29:29;25.90;;;19.87;;
2940;SDS011;1480;51.456;6.670;2022-12-07T00:31:56;32.23;;;22.00;;
2940;SDS011;1480;51.456;6.670;2022-12-07T00:34:23;28.57;;;21.80;;
2940;SDS011;1480;51.456;6.670;2022-12-07T00:36:51;29.20;;;21.40;;
2940;SDS011;1480;51.456;6.670;2022-12-07T00:39:18;28.13;;;21.60;;
2940;SDS011;1480;51.456;6.670;2022-12-07T00:41:45;27.33;;;22.07;;
2940;SDS011;1480;51.456;6.670;2022-12-07T00:44:12;31.33;;;20.53;;
2940;SDS011;1480;51.456;6.670;2022-12-07T00:46:39;24.87;;;18.83;;
2940;SDS011;1480;51.456;6.670;2022-12-07T00:49:06;24.53;;;19.37;;
2940;SDS011;1480;51.456;6.670;2022-12-07T00:51:33;25.33;;;20.00;;
2940;SDS011;1480;51.456;6.670;2022-12-07T00:54:01;24.93;;;17.50;;
2940;SDS011;1480;51.456;6.670;2022-12-07T00:56:28;28.60;;;20.37;;
2940;SDS011;1480;51.456;6.670;2022-12-07T00:58:56;28.43;;;19.97;;
2940;SDS011;1480;51.456;6.670;2022-12-07T01:01:25;24.77;;;19.33;;
2940;SDS011;1480;51.456;6.670;2022-12-07T01:03:53;28.90;;;19.80;;
2940;SDS011;1480;51.456;6.670;2022-12-07T01:06:21;30.00;;;21.67;;
2940;SDS011;1480;51.456;6.670;2022-12-07T01:08:49;28.10;;;18.93;;
2940;SDS011;1480;51.456;6.670;2022-12-07T01:11:18;22.93;;;20.37;;
2940;SDS011;1480;51.456;6.670;2022-12-07T01:13:47;27.17;;;20.00;;
2940;SDS011;1480;51.456;6.670;2022-12-07T01:16:16;34.33;;;21.63;;
2940;SDS011;1480;51.456;6.670;2022-12-07T01:18:45;27.33;;;20.60;;
2940;SDS011;1480;51.456;6.670;2022-12-07T01:21:14;25.83;;;20.00;;
2940;SDS011;1480;51.456;6.670;2022-12-07T01:23:42;24.30;;;17.50;;
2940;SDS011;1480;51.456;6.670;2022-12-07T01:26:10;28.33;;;21.17;;
2940;SDS011;1480;51.456;6.670;2022-12-07T01:28:39;26.87;;;19.83;;
2940;SDS011;1480;51.456;6.670;2022-12-07T01:31:07;22.07;;;17.13;;
2940;SDS011;1480;51.456;6.670;2022-12-07T01:33:37;23.97;;;19.40;;
2940;SDS011;1480;51.456;6.670;2022-12-07T01:36:06;23.97;;;18.57;;
2940;SDS011;1480;51.456;6.670;2022-12-07T01:38:34;27.90;;;19.70;;
2940;SDS011;1480;51.456;6.670;2022-12-07T01:41:01;24.83;;;18.17;;
2940;SDS011;1480;51.456;6.670;2022-12-07T01:43:29;26.93;;;19.80;;
2940;SDS011;1480;51.456;6.670;2022-12-07T01:46:01;27.10;;;19.00;;
2940;SDS011;1480;51.456;6.670;2022-12-07T01:48:30;26.20;;;20.43;;
2940;SDS011;1480;51.456;6.670;2022-12-07T01:51:02;27.83;;;20.63;;
2940;SDS011;1480;51.456;6.670;2022-12-07T01:53:40;29.13;;;20.37;;
2940;SDS011;1480;51.456;6.670;2022-12-07T01:56:12;31.40;;;20.73;;
2940;SDS011;1480;51.456;6.670;2022-12-07T01:58:44;28.83;;;20.43;;
2940;SDS011;1480;51.456;6.670;2022-12-07T02:01:13;25.33;;;20.57;;
2940;SDS011;1480;51.456;6.670;2022-12-07T02:03:41;23.77;;;19.03;;
2940;SDS011;1480;51.456;6.670;2022-12-07T02:06:10;22.20;;;18.00;;
2940;SDS011;1480;51.456;6.670;2022-12-07T02:08:42;21.87;;;18.03;;
2940;SDS011;1480;51.456;6.670;2022-12-07T02:11:09;22.63;;;17.47;;
2940;SDS011;1480;51.456;6.670;2022-12-07T02:13:38;25.90;;;20.67;;
2940;SDS011;1480;51.456;6.670;2022-12-07T02:16:14;23.30;;;17.80;;
2940;SDS011;1480;51.456;6.670;2022-12-07T02:18:54;21.20;;;16.97;;
2940;SDS011;1480;51.456;6.670;2022-12-07T02:21:29;26.30;;;19.83;;
2940;SDS011;1480;51.456;6.670;2022-12-07T02:24:13;24.47;;;20.30;;
2940;SDS011;1480;51.456;6.670;2022-12-07T02:27:06;26.10;;;20.00;;
2940;SDS011;1480;51.456;6.670;2022-12-07T02:29:49;26.97;;;19.53;;
2940;SDS011;1480;51.456;6.670;2022-12-07T02:32:25;33.17;;;21.37;;
2940;SDS011;1480;51.456;6.670;2022-12-07T02:34:58;24.03;;;20.90;;
2940;SDS011;1480;51.456;6.670;2022-12-07T02:37:33;26.20;;;18.00;;
2940;SDS011;1480;51.456;6.670;2022-12-07T02:40:06;25.67;;;20.67;;
2940;SDS011;1480;51.456;6.670;2022-12-07T02:42:38;27.93;;;18.73;;
2940;SDS011;1480;51.456;6.670;2022-12-07T02:45:10;24.50;;;18.67;;
2940;SDS011;1480;51.456;6.670;2022-12-07T02:47:41;30.47;;;19.50;;
2940;SDS011;1480;51.456;6.670;2022-12-07T02:50:10;25.43;;;18.90;;
2940;SDS011;1480;51.456;6.670;2022-12-07T02:52:37;23.03;;;17.90;;
2940;SDS011;1480;51.456;6.670;2022-12-07T02:55:04;21.07;;;16.80;;
2940;SDS011;1480;51.456;6.670;2022-12-07T02:57:37;29.90;;;17.53;;
2940;SDS011;1480;51.456;6.670;2022-12-07T03:00:15;20.23;;;17.40;;
2940;SDS011;1480;51.456;6.670;2022-12-07T03:02:48;25.10;;;18.53;;
2940;SDS011;1480;51.456;6.670;2022-12-07T03:05:27;25.43;;;18.47;;
2940;SDS011;1480;51.456;6.670;2022-12-07T03:08:04;25.47;;;19.53;;
2940;SDS011;1480;51.456;6.670;2022-12-07T03:10:36;24.50;;;20.03;;
2940;SDS011;1480;51.456;6.670;2022-12-07T03:13:11;22.80;;;18.10;;
2940;SDS011;1480;51.456;6.670;2022-12-07T03:15:46;30.30;;;20.77;;
2940;SDS011;1480;51.456;6.670;2022-12-07T03:18:21;32.23;;;21.37;;
2940;SDS011;1480;51.456;6.670;2022-12-07T03:20:51;21.60;;;17.73;;
2940;SDS011;1480;51.456;6.670;2022-12-07T03:23:23;28.60;;;19.40;;
2940;SDS011;1480;51.456;6.670;2022-12-07T03:25:52;23.23;;;16.70;;
2940;SDS011;1480;51.456;6.670;2022-12-07T03:28:23;32.93;;;19.07;;
2940;SDS011;1480;51.456;6.670;2022-12-07T03:30:55;25.27;;;19.10;;
2940;SDS011;1480;51.456;6.670;2022-12-07T03:33:26;23.43;;;17.10;;
2940;SDS011;1480;51.456;6.670;2022-12-07T03:35:58;28.07;;;18.33;;
2940;SDS011;1480;51.456;6.670;2022-12-07T03:38:31;30.57;;;19.50;;
2940;SDS011;1480;51.456;6.670;2022-12-07T03:41:04;25.90;;;19.73;;
2940;SDS011;1480;51.456;6.670;2022-12-07T03:43:33;29.13;;;20.77;;
2940;SDS011;1480;51.456;6.670;2022-12-07T03:46:04;35.97;;;20.93;;
2940;SDS011;1480;51.456;6.670;2022-12-07T03:48:42;28.97;;;20.50;;
2940;SDS011;1480;51.456;6.670;2022-12-07T03:51:18;29.80;;;22.20;;
2940;SDS011;1480;51.456;6.670;2022-12-07T03:53:50;28.23;;;21.73;;
2940;SDS011;1480;51.456;6.670;2022-12-07T03:56:21;31.60;;;20.60;;
2940;SDS011;1480;51.456;6.670;2022-12-07T03:58:49;25.50;;;18.87;;
2940;SDS011;1480;51.456;6.670;2022-12-07T04:01:19;27.23;;;19.80;;
2940;SDS011;1480;51.456;6.670;2022-12-07T04:03:46;30.23;;;21.20;;
2940;SDS011;1480;51.456;6.670;2022-12-07T04:06:13;27.53;;;19.07;;
2940;SDS011;1480;51.456;6.670;2022-12-07T04:08:40;32.97;;;19.60;;
2940;SDS011;1480;51.456;6.670;2022-12-07T04:11:07;24.10;;;18.30;;
2940;SDS011;1480;51.456;6.670;2022-12-07T04:13:34;31.07;;;19.90;;
2940;SDS011;1480;51.456;6.670;2022-12-07T04:16:22;22.47;;;18.70;;
2940;SDS011;1480;51.456;6.670;2022-12-07T04:18:49;28.80;;;18.70;;
2940;SDS011;1480;51.456;6.670;2022-12-07T04:21:16;28.13;;;19.77;;
2940;SDS011;1480;51.456;6.670;2022-12-07T04:23:43;27.00;;;20.07;;
2940;SDS011;1480;51.456;6.670;2022-12-07T04:26:10;24.90;;;19.00;;
2940;SDS011;1480;51.456;6.670;2022-12-07T04:28:37;26.10;;;18.50;;
2940;SDS011;1480;51.456;6.670;2022-12-07T04:31:04;30.10;;;19.27;;
2940;SDS011;1480;51.456;6.670;2022-12-07T04:33:32;24.47;;;17.73;;
2940;SDS011;1480;51.456;6.670;2022-12-07T04:35:59;26.13;;;18.83;;
2940;SDS011;1480;51.456;6.670;2022-12-07T04:38:26;22.03;;;17.53;;
2940;SDS011;1480;51.456;6.670;2022-12-07T04:40:53;26.13;;;17.97;;
2940;SDS011;1480;51.456;6.670;2022-12-07T04:43:20;31.50;;;17.30;;
2940;SDS011;1480;51.456;6.670;2022-12-07T04:45:47;24.87;;;17.37;;
2940;SDS011;1480;51.456;6.670;2022-12-07T04:48:15;24.30;;;17.33;;
2940;SDS011;1480;51.456;6.670;2022-12-07T04:50:44;27.57;;;18.60;;
2940;SDS011;1480;51.456;6.670;2022-12-07T04:53:13;22.30;;;16.60;;
2940;SDS011;1480;51.456;6.670;2022-12-07T04:55:40;23.13;;;16.27;;
2940;SDS011;1480;51.456;6.670;2022-12-07T04:58:07;26.37;;;16.80;;
2940;SDS011;1480;51.456;6.670;2022-12-07T05:00:34;29.90;;;16.80;;
2940;SDS011;1480;51.456;6.670;2022-12-07T05:03:01;24.07;;;15.13;;
2940;SDS011;1480;51.456;6.670;2022-12-07T05:05:28;26.50;;;15.27;;
2940;SDS011;1480;51.456;6.670;2022-12-07T05:07:56;23.73;;;14.87;;
2940;SDS011;1480;51.456;6.670;2022-12-07T05:10:23;27.47;;;14.50;;
2940;SDS011;1480;51.456;6.670;2022-12-07T05:12:50;19.67;;;14.80;;
2940;SDS011;1480;51.456;6.670;2022-12-07T05:15:17;22.63;;;14.63;;
2940;SDS011;1480;51.456;6.670;2022-12-07T05:17:44;21.37;;;15.50;;
2940;SDS011;1480;51.456;6.670;2022-12-07T05:20:11;24.00;;;13.97;;
2940;SDS011;1480;51.456;6.670;2022-12-07T05:22:38;19.00;;;14.97;;
2940;SDS011;1480;51.456;6.670;2022-12-07T05:25:07;19.73;;;14.60;;
2940;SDS011;1480;51.456;6.670;2022-12-07T05:27:34;19.70;;;14.37;;
2940;SDS011;1480;51.456;6.670;2022-12-07T05:30:01;17.47;;;14.03;;
2940;SDS011;1480;51.456;6.670;2022-12-07T05:32:28;17.70;;;13.17;;
2940;SDS011;1480;51.456;6.670;2022-12-07T05:34:55;20.70;;;13.60;;
2940;SDS011;1480;51.456;6.670;2022-12-07T05:37:22;19.20;;;14.10;;
2940;SDS011;1480;51.456;6.670;2022-12-07T05:39:49;19.27;;;14.60;;
2940;SDS011;1480;51.456;6.670;2022-12-07T05:42:17;19.20;;;11.80;;
2940;SDS011;1480;51.456;6.670;2022-12-07T05:44:45;19.23;;;14.00;;
2940;SDS011;1480;51.456;6.670;2022-12-07T05:47:13;20.97;;;13.97;;
2940;SDS011;1480;51.456;6.670;2022-12-07T05:49:40;21.90;;;13.50;;
2940;SDS011;1480;51.456;6.670;2022-12-07T05:52:07;19.57;;;13.27;;
2940;SDS011;1480;51.456;6.670;2022-12-07T05:54:34;16.37;;;12.07;;
2940;SDS011;1480;51.456;6.670;2022-12-07T05:57:01;18.00;;;11.30;;
2940;SDS011;1480;51.456;6.670;2022-12-07T05:59:30;15.40;;;12.27;;
2940;SDS011;1480;51.456;6.670;2022-12-07T06:01:56;18.40;;;12.00;;
2940;SDS011;1480;51.456;6.670;2022-12-07T06:04:25;18.50;;;12.47;;
2940;SDS011;1480;51.456;6.670;2022-12-07T06:06:53;17.07;;;12.00;;
2940;SDS011;1480;51.456;6.670;2022-12-07T06:09:20;18.37;;;11.53;;
2940;SDS011;1480;51.456;6.670;2022-12-07T06:11:49;17.70;;;12.43;;
2940;SDS011;1480;51.456;6.670;2022-12-07T06:14:35;21.73;;;12.60;;
2940;SDS011;1480;51.456;6.670;2022-12-07T06:17:11;19.23;;;12.80;;
2940;SDS011;1480;51.456;6.670;2022-12-07T06:19:39;15.23;;;12.20;;
2940;SDS011;1480;51.456;6.670;2022-12-07T06:22:06;19.17;;;12.10;;
2940;SDS011;1480;51.456;6.670;2022-12-07T06:24:34;16.53;;;11.80;;
2940;SDS011;1480;51.456;6.670;2022-12-07T06:27:01;20.17;;;12.73;;
2940;SDS011;1480;51.456;6.670;2022-12-07T06:29:28;19.30;;;13.53;;
2940;SDS011;1480;51.456;6.670;2022-12-07T06:31:57;15.27;;;11.47;;
2940;SDS011;1480;51.456;6.670;2022-12-07T06:34:25;17.27;;;13.57;;
2940;SDS011;1480;51.456;6.670;2022-12-07T06:36:53;17.80;;;12.17;;
2940;SDS011;1480;51.456;6.670;2022-12-07T06:39:21;16.67;;;12.40;;
2940;SDS011;1480;51.456;6.670;2022-12-07T06:41:50;21.83;;;12.73;;
2940;SDS011;1480;51.456;6.670;2022-12-07T06:44:19;19.70;;;12.60;;
2940;SDS011;1480;51.456;6.670;2022-12-07T06:46:46;26.80;;;15.67;;
2940;SDS011;1480;51.456;6.670;2022-12-07T06:49:15;22.93;;;14.47;;
2940;SDS011;1480;51.456;6.670;2022-12-07T06:51:42;18.80;;;14.80;;
2940;SDS011;1480;51.456;6.670;2022-12-07T06:54:09;17.70;;;14.10;;
2940;SDS011;1480;51.456;6.670;2022-12-07T06:56:38;16.10;;;12.40;;
2940;SDS011;1480;51.456;6.670;2022-12-07T06:59:05;16.23;;;12.40;;
2940;SDS011;1480;51.456;6.670;2022-12-07T07:01:33;16.83;;;13.40;;
2940;SDS011;1480;51.456;6.670;2022-12-07T07:04:00;19.57;;;12.43;;
2940;SDS011;1480;51.456;6.670;2022-12-07T07:06:29;18.70;;;12.60;;
2940;SDS011;1480;51.456;6.670;2022-12-07T07:08:56;17.67;;;12.30;;
2940;SDS011;1480;51.456;6.670;2022-12-07T07:11:23;19.73;;;11.70;;
2940;SDS011;1480;51.456;6.670;2022-12-07T07:13:50;15.93;;;11.43;;
2940;SDS011;1480;51.456;6.670;2022-12-07T07:16:17;17.30;;;12.40;;
2940;SDS011;1480;51.456;6.670;2022-12-07T07:18:43;20.87;;;12.03;;
2940;SDS011;1480;51.456;6.670;2022-12-07T07:21:10;16.93;;;12.90;;
2940;SDS011;1480;51.456;6.670;2022-12-07T07:23:39;17.30;;;12.33;;
2940;SDS011;1480;51.456;6.670;2022-12-07T07:26:05;18.90;;;14.40;;
2940;SDS011;1480;51.456;6.670;2022-12-07T07:28:32;17.03;;;15.03;;
2940;SDS011;1480;51.456;6.670;2022-12-07T07:30:59;20.37;;;13.60;;
2940;SDS011;1480;51.456;6.670;2022-12-07T07:33:26;19.40;;;15.10;;
2940;SDS011;1480;51.456;6.670;2022-12-07T07:35:53;21.23;;;14.30;;
2940;SDS011;1480;51.456;6.670;2022-12-07T07:38:20;20.17;;;13.50;;
2940;SDS011;1480;51.456;6.670;2022-12-07T07:40:48;18.07;;;13.63;;
2940;SDS011;1480;51.456;6.670;2022-12-07T07:43:15;14.93;;;11.53;;
2940;SDS011;1480;51.456;6.670;2022-12-07T07:45:42;24.03;;;12.80;;
2940;SDS011;1480;51.456;6.670;2022-12-07T07:48:10;17.40;;;12.70;;
2940;SDS011;1480;51.456;6.670;2022-12-07T07:50:37;16.27;;;12.00;;
2940;SDS011;1480;51.456;6.670;2022-12-07T07:53:04;20.10;;;12.43;;
2940;SDS011;1480;51.456;6.670;2022-12-07T07:55:31;21.77;;;13.57;;
2940;SDS011;1480;51.456;6.670;2022-12-07T07:57:59;17.30;;;12.53;;
2940;SDS011;1480;51.456;6.670;2022-12-07T08:00:26;20.40;;;13.60;;
2940;SDS011;1480;51.456;6.670;2022-12-07T08:02:53;24.13;;;13.93;;
2940;SDS011;1480;51.456;6.670;2022-12-07T08:05:20;17.93;;;14.27;;
2940;SDS011;1480;51.456;6.670;2022-12-07T08:07:47;22.20;;;13.40;;
2940;SDS011;1480;51.456;6.670;2022-12-07T08:10:14;19.23;;;13.97;;
2940;SDS011;1480;51.456;6.670;2022-12-07T08:12:41;21.47;;;14.63;;
2940;SDS011;1480;51.456;6.670;2022-12-07T08:15:29;20.60;;;14.47;;
2940;SDS011;1480;51.456;6.670;2022-12-07T08:17:56;22.23;;;14.50;;
2940;SDS011;1480;51.456;6.670;2022-12-07T08:20:23;24.73;;;14.43;;
2940;SDS011;1480;51.456;6.670;2022-12-07T08:22:50;22.70;;;14.17;;
2940;SDS011;1480;51.456;6.670;2022-12-07T08:25:17;19.50;;;13.70;;
2940;SDS011;1480;51.456;6.670;2022-12-07T08:27:44;21.30;;;14.47;;
2940;SDS011;1480;51.456;6.670;2022-12-07T08:30:11;19.67;;;13.90;;
2940;SDS011;1480;51.456;6.670;2022-12-07T08:32:40;22.10;;;13.70;;
2940;SDS011;1480;51.456;6.670;2022-12-07T08:35:08;20.80;;;14.67;;
2940;SDS011;1480;51.456;6.670;2022-12-07T08:37:35;23.77;;;14.90;;
2940;SDS011;1480;51.456;6.670;2022-12-07T08:40:02;18.93;;;15.90;;
2940;SDS011;1480;51.456;6.670;2022-12-07T08:42:30;26.50;;;15.90;;
2940;SDS011;1480;51.456;6.670;2022-12-07T08:45:03;21.67;;;15.80;;
2940;SDS011;1480;51.456;6.670;2022-12-07T08:47:31;19.80;;;14.70;;
2940;SDS011;1480;51.456;6.670;2022-12-07T08:50:00;26.10;;;15.67;;
2940;SDS011;1480;51.456;6.670;2022-12-07T08:52:28;24.63;;;15.80;;
2940;SDS011;1480;51.456;6.670;2022-12-07T08:54:56;21.60;;;14.43;;
2940;SDS011;1480;51.456;6.670;2022-12-07T08:57:23;18.87;;;11.97;;
2940;SDS011;1480;51.456;6.670;2022-12-07T08:59:50;16.67;;;13.13;;
2940;SDS011;1480;51.456;6.670;2022-12-07T09:02:17;20.30;;;13.83;;
2940;SDS011;1480;51.456;6.670;2022-12-07T09:04:44;21.10;;;12.70;;
2940;SDS011;1480;51.456;6.670;2022-12-07T09:07:13;17.87;;;12.30;;
2940;SDS011;1480;51.456;6.670;2022-12-07T09:09:40;20.80;;;13.03;;
2940;SDS011;1480;51.456;6.670;2022-12-07T09:12:07;20.40;;;12.97;;
2940;SDS011;1480;51.456;6.670;2022-12-07T09:14:35;18.20;;;11.83;;
2940;SDS011;1480;51.456;6.670;2022-12-07T09:17:05;19.53;;;12.03;;
2940;SDS011;1480;51.456;6.670;2022-12-07T09:19:33;26.33;;;14.50;;
2940;SDS011;1480;51.456;6.670;2022-12-07T09:22:00;16.47;;;10.63;;
2940;SDS011;1480;51.456;6.670;2022-12-07T09:24:28;15.10;;;8.97;;
2940;SDS011;1480;51.456;6.670;2022-12-07T09:26:55;12.27;;;8.53;;
2940;SDS011;1480;51.456;6.670;2022-12-07T09:29:22;13.37;;;8.77;;
2940;SDS011;1480;51.456;6.670;2022-12-07T09:31:50;14.43;;;7.90;;
2940;SDS011;1480;51.456;6.670;2022-12-07T09:34:17;9.97;;;7.50;;
2940;SDS011;1480;51.456;6.670;2022-12-07T09:36:44;11.60;;;8.37;;
2940;SDS011;1480;51.456;6.670;2022-12-07T09:39:11;17.77;;;8.47;;
2940;SDS011;1480;51.456;6.670;2022-12-07T09:41:39;10.60;;;8.20;;
2940;SDS011;1480;51.456;6.670;2022-12-07T09:44:09;11.47;;;8.90;;
2940;SDS011;1480;51.456;6.670;2022-12-07T09:46:40;14.43;;;9.63;;
2940;SDS011;1480;51.456;6.670;2022-12-07T09:49:09;15.60;;;8.37;;
2940;SDS011;1480;51.456;6.670;2022-12-07T09:51:39;15.37;;;7.30;;
2940;SDS011;1480;51.456;6.670;2022-12-07T09:54:07;11.97;;;9.13;;
2940;SDS011;1480;51.456;6.670;2022-12-07T09:56:39;14.07;;;8.73;;
2940;SDS011;1480;51.456;6.670;2022-12-07T09:59:09;12.80;;;7.67;;
2940;SDS011;1480;51.456;6.670;2022-12-07T10:01:42;10.83;;;6.73;;
2940;SDS011;1480;51.456;6.670;2022-12-07T10:04:11;11.33;;;6.93;;
2940;SDS011;1480;51.456;6.670;2022-12-07T10:06:42;9.87;;;7.97;;
2940;SDS011;1480;51.456;6.670;2022-12-07T10:09:09;10.90;;;7.10;;
2940;SDS011;1480;51.456;6.670;2022-12-07T10:14:29;10.73;;;6.10;;
2940;SDS011;1480;51.456;6.670;2022-12-07T10:16:58;7.97;;;5.90;;
2940;SDS011;1480;51.456;6.670;2022-12-07T10:19:26;11.13;;;5.90;;
2940;SDS011;1480;51.456;6.670;2022-12-07T10:22:05;13.53;;;5.80;;
2940;SDS011;1480;51.456;6.670;2022-12-07T10:24:36;9.30;;;6.03;;
2940;SDS011;1480;51.456;6.670;2022-12-07T10:27:09;8.37;;;5.10;;
2940;SDS011;1480;51.456;6.670;2022-12-07T10:29:50;14.40;;;5.70;;
2940;SDS011;1480;51.456;6.670;2022-12-07T10:32:27;7.60;;;5.50;;
2940;SDS011;1480;51.456;6.670;2022-12-07T10:37:48;8.63;;;5.20;;
2940;SDS011;1480;51.456;6.670;2022-12-07T10:40:24;11.27;;;5.53;;
2940;SDS011;1480;51.456;6.670;2022-12-07T10:43:02;19.37;;;9.03;;
2940;SDS011;1480;51.456;6.670;2022-12-07T10:45:32;13.50;;;6.00;;
2940;SDS011;1480;51.456;6.670;2022-12-07T10:48:00;8.77;;;5.40;;
2940;SDS011;1480;51.456;6.670;2022-12-07T10:50:47;11.30;;;5.90;;
2940;SDS011;1480;51.456;6.670;2022-12-07T10:53:27;9.90;;;4.50;;
2940;SDS011;1480;51.456;6.670;2022-12-07T10:56:11;7.07;;;4.93;;
2940;SDS011;1480;51.456;6.670;2022-12-07T10:59:08;7.03;;;4.30;;
2940;SDS011;1480;51.456;6.670;2022-12-07T11:01:51;6.67;;;4.60;;
2940;SDS011;1480;51.456;6.670;2022-12-07T11:04:25;8.23;;;4.43;;
2940;SDS011;1480;51.456;6.670;2022-12-07T11:07:00;17.23;;;4.80;;
2940;SDS011;1480;51.456;6.670;2022-12-07T11:09:36;10.83;;;4.73;;
2940;SDS011;1480;51.456;6.670;2022-12-07T11:12:26;9.93;;;4.47;;
2940;SDS011;1480;51.456;6.670;2022-12-07T11:15:04;10.60;;;4.70;;
2940;SDS011;1480;51.456;6.670;2022-12-07T11:17:43;11.00;;;4.70;;
2940;SDS011;1480;51.456;6.670;2022-12-07T11:20:20;8.80;;;4.30;;
2940;SDS011;1480;51.456;6.670;2022-12-07T11:22:59;13.10;;;5.47;;
2940;SDS011;1480;51.456;6.670;2022-12-07T11:25:31;10.90;;;4.53;;
2940;SDS011;1480;51.456;6.670;2022-12-07T11:28:03;8.37;;;4.90;;
2940;SDS011;1480;51.456;6.670;2022-12-07T11:30:47;10.60;;;6.33;;
2940;SDS011;1480;51.456;6.670;2022-12-07T11:33:25;7.10;;;3.73;;
2940;SDS011;1480;51.456;6.670;2022-12-07T11:36:02;10.10;;;4.90;;
2940;SDS011;1480;51.456;6.670;2022-12-07T11:38:38;8.13;;;4.57;;
2940;SDS011;1480;51.456;6.670;2022-12-07T11:41:09;6.60;;;4.53;;
2940;SDS011;1480;51.456;6.670;2022-12-07T11:43:43;6.43;;;4.13;;
2940;SDS011;1480;51.456;6.670;2022-12-07T11:46:20;10.57;;;5.10;;
2940;SDS011;1480;51.456;6.670;2022-12-07T11:48:51;6.87;;;4.20;;
2940;SDS011;1480;51.456;6.670;2022-12-07T11:51:27;6.40;;;4.97;;
2940;SDS011;1480;51.456;6.670;2022-12-07T11:53:59;7.80;;;4.40;;
2940;SDS011;1480;51.456;6.670;2022-12-07T11:56:29;8.67;;;4.13;;
2940;SDS011;1480;51.456;6.670;2022-12-07T11:59:02;6.50;;;4.63;;
2940;SDS011;1480;51.456;6.670;2022-12-07T12:01:42;4.73;;;4.10;;
2940;SDS011;1480;51.456;6.670;2022-12-07T12:04:23;7.30;;;4.40;;
2940;SDS011;1480;51.456;6.670;2022-12-07T12:06:58;7.97;;;4.50;;
2940;SDS011;1480;51.456;6.670;2022-12-07T12:09:29;14.83;;;4.87;;
2940;SDS011;1480;51.456;6.670;2022-12-07T12:12:10;9.53;;;4.33;;
2940;SDS011;1480;51.456;6.670;2022-12-07T12:14:49;7.03;;;4.10;;
2940;SDS011;1480;51.456;6.670;2022-12-07T12:17:34;6.63;;;4.47;;
2940;SDS011;1480;51.456;6.670;2022-12-07T12:20:18;10.83;;;3.90;;
2940;SDS011;1480;51.456;6.670;2022-12-07T12:22:49;8.03;;;3.40;;
2940;SDS011;1480;51.456;6.670;2022-12-07T12:25:21;8.07;;;4.10;;
2940;SDS011;1480;51.456;6.670;2022-12-07T12:27:50;10.23;;;4.10;;
2940;SDS011;1480;51.456;6.670;2022-12-07T12:30:31;5.60;;;4.10;;
2940;SDS011;1480;51.456;6.670;2022-12-07T12:33:06;5.03;;;2.93;;
2940;SDS011;1480;51.456;6.670;2022-12-07T12:35:39;6.80;;;4.03;;
2940;SDS011;1480;51.456;6.670;2022-12-07T12:40:58;5.77;;;3.33;;
2940;SDS011;1480;51.456;6.670;2022-12-07T12:43:46;5.83;;;2.80;;
2940;SDS011;1480;51.456;6.670;2022-12-07T12:49:15;4.40;;;3.30;;
2940;SDS011;1480;51.456;6.670;2022-12-07T12:52:01;7.10;;;4.00;;
2940;SDS011;1480;51.456;6.670;2022-12-07T12:54:57;9.60;;;4.33;;
2940;SDS011;1480;51.456;6.670;2022-12-07T12:57:27;6.37;;;3.73;;
2940;SDS011;1480;51.456;6.670;2022-12-07T12:59:56;9.77;;;4.00;;
2940;SDS011;1480;51.456;6.670;2022-12-07T13:02:24;9.47;;;3.33;;
2940;SDS011;1480;51.456;6.670;2022-12-07T13:04:55;7.70;;;3.57;;
2940;SDS011;1480;51.456;6.670;2022-12-07T13:10:24;7.80;;;3.50;;
2940;SDS011;1480;51.456;6.670;2022-12-07T13:22:42;7.70;;;3.30;;
2940;SDS011;1480;51.456;6.670;2022-12-07T13:25:22;11.30;;;3.07;;
2940;SDS011;1480;51.456;6.670;2022-12-07T13:27:57;5.03;;;2.73;;
2940;SDS011;1480;51.456;6.670;2022-12-07T13:30:27;4.40;;;3.07;;
2940;SDS011;1480;51.456;6.670;2022-12-07T13:32:57;4.20;;;2.90;;
2940;SDS011;1480;51.456;6.670;2022-12-07T13:35:31;7.40;;;2.43;;
2940;SDS011;1480;51.456;6.670;2022-12-07T13:38:04;6.60;;;3.00;;
2940;SDS011;1480;51.456;6.670;2022-12-07T13:40:32;10.77;;;3.33;;
2940;SDS011;1480;51.456;6.670;2022-12-07T13:43:00;3.80;;;3.10;;
2940;SDS011;1480;51.456;6.670;2022-12-07T13:45:28;5.73;;;2.50;;
2940;SDS011;1480;51.456;6.670;2022-12-07T13:48:16;6.90;;;3.30;;
2940;SDS011;1480;51.456;6.670;2022-12-07T13:50:54;7.80;;;3.13;;
2940;SDS011;1480;51.456;6.670;2022-12-07T13:53:23;7.57;;;3.00;;
2940;SDS011;1480;51.456;6.670;2022-12-07T13:55:53;5.30;;;2.73;;
2940;SDS011;1480;51.456;6.670;2022-12-07T13:58:20;4.37;;;2.23;;
2940;SDS011;1480;51.456;6.670;2022-12-07T14:00:48;5.23;;;2.63;;
2940;SDS011;1480;51.456;6.670;2022-12-07T14:03:26;4.60;;;2.40;;
2940;SDS011;1480;51.456;6.670;2022-12-07T14:09:15;6.73;;;2.63;;
2940;SDS011;1480;51.456;6.670;2022-12-07T14:11:45;6.80;;;2.10;;
2940;SDS011;1480;51.456;6.670;2022-12-07T14:14:15;4.70;;;2.20;;
2940;SDS011;1480;51.456;6.670;2022-12-07T14:16:54;7.10;;;2.57;;
2940;SDS011;1480;51.456;6.670;2022-12-07T14:19:44;9.10;;;3.10;;
2940;SDS011;1480;51.456;6.670;2022-12-07T14:22:20;7.80;;;2.83;;
2940;SDS011;1480;51.456;6.670;2022-12-07T14:25:01;16.73;;;3.40;;
2940;SDS011;1480;51.456;6.670;2022-12-07T14:27:47;5.20;;;2.30;;
2940;SDS011;1480;51.456;6.670;2022-12-07T14:30:21;7.53;;;2.70;;
2940;SDS011;1480;51.456;6.670;2022-12-07T14:32:49;4.90;;;2.97;;
2940;SDS011;1480;51.456;6.670;2022-12-07T14:35:19;5.27;;;3.00;;
2940;SDS011;1480;51.456;6.670;2022-12-07T14:37:47;4.77;;;2.80;;
2940;SDS011;1480;51.456;6.670;2022-12-07T14:40:17;4.20;;;2.00;;
2940;SDS011;1480;51.456;6.670;2022-12-07T14:42:46;7.87;;;3.00;;
2940;SDS011;1480;51.456;6.670;2022-12-07T14:45:16;4.87;;;2.40;;
2940;SDS011;1480;51.456;6.670;2022-12-07T14:47:44;3.63;;;2.13;;
2940;SDS011;1480;51.456;6.670;2022-12-07T14:50:12;5.83;;;2.27;;
2940;SDS011;1480;51.456;6.670;2022-12-07T14:52:39;5.50;;;2.30;;
2940;SDS011;1480;51.456;6.670;2022-12-07T14:55:12;10.43;;;3.40;;
2940;SDS011;1480;51.456;6.670;2022-12-07T14:57:42;7.43;;;3.37;;
2940;SDS011;1480;51.456;6.670;2022-12-07T15:00:13;4.47;;;3.07;;
2940;SDS011;1480;51.456;6.670;2022-12-07T15:02:42;8.70;;;3.97;;
2940;SDS011;1480;51.456;6.670;2022-12-07T15:05:09;7.20;;;3.60;;
2940;SDS011;1480;51.456;6.670;2022-12-07T15:07:36;6.87;;;4.30;;
2940;SDS011;1480;51.456;6.670;2022-12-07T15:10:04;6.37;;;4.30;;
2940;SDS011;1480;51.456;6.670;2022-12-07T15:12:32;7.23;;;3.57;;
2940;SDS011;1480;51.456;6.670;2022-12-07T15:15:00;5.87;;;3.70;;
2940;SDS011;1480;51.456;6.670;2022-12-07T15:17:27;5.27;;;3.70;;
2940;SDS011;1480;51.456;6.670;2022-12-07T15:19:54;5.87;;;3.53;;
2940;SDS011;1480;51.456;6.670;2022-12-07T15:22:21;11.10;;;4.20;;
2940;SDS011;1480;51.456;6.670;2022-12-07T15:24:48;6.43;;;3.43;;
2940;SDS011;1480;51.456;6.670;2022-12-07T15:27:15;6.27;;;3.27;;
2940;SDS011;1480;51.456;6.670;2022-12-07T15:29:42;5.73;;;3.40;;
2940;SDS011;1480;51.456;6.670;2022-12-07T15:32:10;9.17;;;3.43;;
2940;SDS011;1480;51.456;6.670;2022-12-07T15:34:37;4.80;;;3.03;;
2940;SDS011;1480;51.456;6.670;2022-12-07T15:37:04;13.00;;;3.90;;
2940;SDS011;1480;51.456;6.670;2022-12-07T15:39:31;5.07;;;3.00;;
2940;SDS011;1480;51.456;6.670;2022-12-07T15:41:58;5.50;;;2.90;;